sensor_id;sensor_type;location;lat;lon;timestamp;P1;durP1;ratioP1;P2;durP2;ratioP2
11046;SDS011;5576;50.008;10.596;2022-12-10T00:01:17;18.17;;;15.20;;
11046;SDS011;5576;50.008;10.596;2022-12-10T00:03:43;15.90;;;14.20;;
11046;SDS011;5576;50.008;10.596;2022-12-10T00:06:11;16.20;;;14.48;;
11046;SDS011;5576;50.008;10.596;2022-12-10T00:08:39;15.30;;;13.45;;
11046;SDS011;5576;50.008;10.596;2022-12-10T00:11:06;15.03;;;13.17;;
11046;SDS011;5576;50.008;10.596;2022-12-10T00:13:34;15.85;;;13.68;;
11046;SDS011;5576;50.008;10.596;2022-12-10T00:16:01;16.77;;;14.23;;
11046;SDS011;5576;50.008;10.596;2022-12-10T00:18:28;15.70;;;13.32;;
11046;SDS011;5576;50.008;10.596;2022-12-10T00:20:54;16.70;;;14.10;;
11046;SDS011;5576;50.008;10.596;2022-12-10T00:23:20;17.77;;;15.43;;
11046;SDS011;5576;50.008;10.596;2022-12-10T00:25:46;19.30;;;16.98;;
11046;SDS011;5576;50.008;10.596;2022-12-10T00:28:12;21.38;;;17.92;;
11046;SDS011;5576;50.008;10.596;2022-12-10T00:30:37;21.90;;;18.83;;
11046;SDS011;5576;50.008;10.596;2022-12-10T00:33:03;21.52;;;18.30;;
11046;SDS011;5576;50.008;10.596;2022-12-10T00:35:29;19.85;;;17.67;;
11046;SDS011;5576;50.008;10.596;2022-12-10T00:37:55;20.98;;;18.55;;
11046;SDS011;5576;50.008;10.596;2022-12-10T00:40:21;23.57;;;18.80;;
11046;SDS011;5576;50.008;10.596;2022-12-10T00:42:47;22.55;;;20.10;;
11046;SDS011;5576;50.008;10.596;2022-12-10T00:45:13;23.77;;;20.00;;
11046;SDS011;5576;50.008;10.596;2022-12-10T00:47:39;21.73;;;18.50;;
11046;SDS011;5576;50.008;10.596;2022-12-10T00:50:05;21.57;;;18.50;;
11046;SDS011;5576;50.008;10.596;2022-12-10T00:52:30;19.40;;;16.73;;
11046;SDS011;5576;50.008;10.596;2022-12-10T00:54:56;16.10;;;14.40;;
11046;SDS011;5576;50.008;10.596;2022-12-10T00:57:22;15.50;;;13.45;;
11046;SDS011;5576;50.008;10.596;2022-12-10T00:59:48;16.37;;;14.40;;
11046;SDS011;5576;50.008;10.596;2022-12-10T01:02:14;16.30;;;14.38;;
11046;SDS011;5576;50.008;10.596;2022-12-10T01:04:39;16.73;;;14.63;;
11046;SDS011;5576;50.008;10.596;2022-12-10T01:07:07;15.68;;;13.98;;
11046;SDS011;5576;50.008;10.596;2022-12-10T01:09:33;17.15;;;15.07;;
11046;SDS011;5576;50.008;10.596;2022-12-10T01:12:00;16.55;;;14.80;;
11046;SDS011;5576;50.008;10.596;2022-12-10T01:14:28;17.02;;;15.18;;
11046;SDS011;5576;50.008;10.596;2022-12-10T01:16:57;15.95;;;14.25;;
11046;SDS011;5576;50.008;10.596;2022-12-10T01:19:30;17.73;;;15.65;;
11046;SDS011;5576;50.008;10.596;2022-12-10T01:22:00;18.65;;;16.55;;
11046;SDS011;5576;50.008;10.596;2022-12-10T01:24:27;19.85;;;17.42;;
11046;SDS011;5576;50.008;10.596;2022-12-10T01:26:54;21.60;;;17.67;;
11046;SDS011;5576;50.008;10.596;2022-12-10T01:29:20;21.30;;;17.60;;
11046;SDS011;5576;50.008;10.596;2022-12-10T01:31:46;20.63;;;18.40;;
11046;SDS011;5576;50.008;10.596;2022-12-10T01:34:16;20.90;;;18.42;;
11046;SDS011;5576;50.008;10.596;2022-12-10T01:36:43;22.02;;;19.17;;
11046;SDS011;5576;50.008;10.596;2022-12-10T01:39:11;20.73;;;18.50;;
11046;SDS011;5576;50.008;10.596;2022-12-10T01:41:41;21.10;;;18.20;;
11046;SDS011;5576;50.008;10.596;2022-12-10T01:46:37;15.05;;;13.27;;
11046;SDS011;5576;50.008;10.596;2022-12-10T01:49:05;16.90;;;13.80;;
11046;SDS011;5576;50.008;10.596;2022-12-10T01:51:34;15.50;;;13.67;;
11046;SDS011;5576;50.008;10.596;2022-12-10T01:54:02;16.40;;;14.70;;
11046;SDS011;5576;50.008;10.596;2022-12-10T01:56:30;17.25;;;14.48;;
11046;SDS011;5576;50.008;10.596;2022-12-10T01:58:58;16.03;;;14.10;;
11046;SDS011;5576;50.008;10.596;2022-12-10T02:01:27;16.30;;;14.50;;
11046;SDS011;5576;50.008;10.596;2022-12-10T02:03:59;16.13;;;14.43;;
11046;SDS011;5576;50.008;10.596;2022-12-10T02:09:09;19.85;;;17.52;;
11046;SDS011;5576;50.008;10.596;2022-12-10T02:11:44;19.38;;;16.98;;
11046;SDS011;5576;50.008;10.596;2022-12-10T02:14:23;19.77;;;16.27;;
11046;SDS011;5576;50.008;10.596;2022-12-10T02:16:57;17.13;;;15.33;;
11046;SDS011;5576;50.008;10.596;2022-12-10T02:22:21;14.43;;;12.70;;
11046;SDS011;5576;50.008;10.596;2022-12-10T02:24:50;14.47;;;12.97;;
11046;SDS011;5576;50.008;10.596;2022-12-10T02:29:52;15.68;;;13.27;;
11046;SDS011;5576;50.008;10.596;2022-12-10T02:32:22;15.63;;;13.77;;
11046;SDS011;5576;50.008;10.596;2022-12-10T02:34:52;14.70;;;13.05;;
11046;SDS011;5576;50.008;10.596;2022-12-10T02:37:23;14.75;;;12.50;;
11046;SDS011;5576;50.008;10.596;2022-12-10T02:39:58;14.27;;;12.60;;
11046;SDS011;5576;50.008;10.596;2022-12-10T02:42:34;15.05;;;12.30;;
11046;SDS011;5576;50.008;10.596;2022-12-10T02:45:04;15.43;;;13.40;;
11046;SDS011;5576;50.008;10.596;2022-12-10T02:47:31;16.50;;;13.83;;
11046;SDS011;5576;50.008;10.596;2022-12-10T02:49:58;17.15;;;15.32;;
11046;SDS011;5576;50.008;10.596;2022-12-10T02:52:26;16.60;;;14.80;;
11046;SDS011;5576;50.008;10.596;2022-12-10T02:54:53;16.00;;;14.30;;
11046;SDS011;5576;50.008;10.596;2022-12-10T03:00:06;16.20;;;14.45;;
11046;SDS011;5576;50.008;10.596;2022-12-10T03:05:18;14.75;;;12.90;;
11046;SDS011;5576;50.008;10.596;2022-12-10T03:07:52;15.05;;;12.85;;
11046;SDS011;5576;50.008;10.596;2022-12-10T03:10:27;14.57;;;12.57;;
11046;SDS011;5576;50.008;10.596;2022-12-10T03:13:00;14.13;;;12.63;;
11046;SDS011;5576;50.008;10.596;2022-12-10T03:15:31;14.63;;;12.80;;
11046;SDS011;5576;50.008;10.596;2022-12-10T03:18:01;13.93;;;12.15;;
11046;SDS011;5576;50.008;10.596;2022-12-10T03:20:28;15.38;;;13.73;;
11046;SDS011;5576;50.008;10.596;2022-12-10T03:22:57;16.70;;;14.52;;
11046;SDS011;5576;50.008;10.596;2022-12-10T03:25:24;16.10;;;13.30;;
11046;SDS011;5576;50.008;10.596;2022-12-10T03:27:54;14.68;;;13.10;;
11046;SDS011;5576;50.008;10.596;2022-12-10T03:30:21;14.70;;;13.13;;
11046;SDS011;5576;50.008;10.596;2022-12-10T03:32:47;14.05;;;12.55;;
11046;SDS011;5576;50.008;10.596;2022-12-10T03:35:14;26.43;;;21.83;;
11046;SDS011;5576;50.008;10.596;2022-12-10T03:37:42;22.98;;;18.80;;
11046;SDS011;5576;50.008;10.596;2022-12-10T03:40:08;16.73;;;14.60;;
11046;SDS011;5576;50.008;10.596;2022-12-10T03:42:36;19.57;;;15.47;;
11046;SDS011;5576;50.008;10.596;2022-12-10T03:45:02;18.48;;;15.32;;
11046;SDS011;5576;50.008;10.596;2022-12-10T03:47:29;18.20;;;15.50;;
11046;SDS011;5576;50.008;10.596;2022-12-10T03:49:55;17.27;;;15.13;;
11046;SDS011;5576;50.008;10.596;2022-12-10T03:52:20;16.25;;;14.32;;
11046;SDS011;5576;50.008;10.596;2022-12-10T03:54:46;16.43;;;14.50;;
11046;SDS011;5576;50.008;10.596;2022-12-10T03:57:12;48.72;;;35.35;;
11046;SDS011;5576;50.008;10.596;2022-12-10T03:59:38;70.32;;;49.25;;
11046;SDS011;5576;50.008;10.596;2022-12-10T04:02:03;56.13;;;41.60;;
11046;SDS011;5576;50.008;10.596;2022-12-10T04:04:32;125.82;;;82.43;;
11046;SDS011;5576;50.008;10.596;2022-12-10T04:06:58;129.27;;;86.40;;
11046;SDS011;5576;50.008;10.596;2022-12-10T04:09:23;76.63;;;54.03;;
11046;SDS011;5576;50.008;10.596;2022-12-10T04:11:49;74.37;;;56.40;;
11046;SDS011;5576;50.008;10.596;2022-12-10T04:14:15;59.30;;;47.85;;
11046;SDS011;5576;50.008;10.596;2022-12-10T04:17:01;28.63;;;23.93;;
11046;SDS011;5576;50.008;10.596;2022-12-10T04:19:26;18.42;;;16.35;;
11046;SDS011;5576;50.008;10.596;2022-12-10T04:21:54;16.65;;;14.63;;
11046;SDS011;5576;50.008;10.596;2022-12-10T04:24:39;18.77;;;16.75;;
11046;SDS011;5576;50.008;10.596;2022-12-10T04:27:27;20.80;;;18.23;;
11046;SDS011;5576;50.008;10.596;2022-12-10T04:29:56;23.30;;;20.77;;
11046;SDS011;5576;50.008;10.596;2022-12-10T04:32:23;25.47;;;22.23;;
11046;SDS011;5576;50.008;10.596;2022-12-10T04:34:50;23.77;;;19.75;;
11046;SDS011;5576;50.008;10.596;2022-12-10T04:37:16;19.97;;;16.77;;
11046;SDS011;5576;50.008;10.596;2022-12-10T04:39:43;19.33;;;15.98;;
11046;SDS011;5576;50.008;10.596;2022-12-10T04:42:09;15.80;;;14.10;;
11046;SDS011;5576;50.008;10.596;2022-12-10T04:44:36;16.13;;;14.43;;
11046;SDS011;5576;50.008;10.596;2022-12-10T04:47:02;17.45;;;15.05;;
11046;SDS011;5576;50.008;10.596;2022-12-10T04:49:30;17.73;;;14.70;;
11046;SDS011;5576;50.008;10.596;2022-12-10T04:51:57;21.33;;;17.80;;
11046;SDS011;5576;50.008;10.596;2022-12-10T04:54:23;20.60;;;17.52;;
11046;SDS011;5576;50.008;10.596;2022-12-10T04:56:49;21.25;;;18.05;;
11046;SDS011;5576;50.008;10.596;2022-12-10T04:59:16;20.30;;;17.75;;
11046;SDS011;5576;50.008;10.596;2022-12-10T05:01:42;20.33;;;18.13;;
11046;SDS011;5576;50.008;10.596;2022-12-10T05:04:09;20.50;;;17.63;;
11046;SDS011;5576;50.008;10.596;2022-12-10T05:06:36;20.25;;;17.80;;
11046;SDS011;5576;50.008;10.596;2022-12-10T05:09:02;19.88;;;17.73;;
11046;SDS011;5576;50.008;10.596;2022-12-10T05:11:30;20.27;;;17.67;;
11046;SDS011;5576;50.008;10.596;2022-12-10T05:13:57;20.42;;;17.80;;
11046;SDS011;5576;50.008;10.596;2022-12-10T05:16:25;19.33;;;17.00;;
11046;SDS011;5576;50.008;10.596;2022-12-10T05:18:52;18.55;;;16.55;;
11046;SDS011;5576;50.008;10.596;2022-12-10T05:21:19;18.83;;;16.58;;
11046;SDS011;5576;50.008;10.596;2022-12-10T05:23:47;19.15;;;15.80;;
11046;SDS011;5576;50.008;10.596;2022-12-10T05:26:16;18.60;;;15.65;;
11046;SDS011;5576;50.008;10.596;2022-12-10T05:28:47;20.08;;;16.50;;
11046;SDS011;5576;50.008;10.596;2022-12-10T05:31:16;20.42;;;16.52;;
11046;SDS011;5576;50.008;10.596;2022-12-10T05:33:44;16.75;;;14.95;;
11046;SDS011;5576;50.008;10.596;2022-12-10T05:36:11;17.85;;;15.40;;
11046;SDS011;5576;50.008;10.596;2022-12-10T05:38:39;17.38;;;14.05;;
11046;SDS011;5576;50.008;10.596;2022-12-10T05:41:06;17.15;;;14.55;;
11046;SDS011;5576;50.008;10.596;2022-12-10T05:43:35;17.58;;;15.20;;
11046;SDS011;5576;50.008;10.596;2022-12-10T05:46:02;17.77;;;15.75;;
11046;SDS011;5576;50.008;10.596;2022-12-10T05:48:30;17.03;;;14.60;;
11046;SDS011;5576;50.008;10.596;2022-12-10T05:50:57;16.10;;;13.95;;
11046;SDS011;5576;50.008;10.596;2022-12-10T05:53:23;25.30;;;22.55;;
11046;SDS011;5576;50.008;10.596;2022-12-10T05:55:49;25.55;;;22.75;;
11046;SDS011;5576;50.008;10.596;2022-12-10T05:58:23;27.27;;;24.48;;
11046;SDS011;5576;50.008;10.596;2022-12-10T06:00:49;20.37;;;18.17;;
11046;SDS011;5576;50.008;10.596;2022-12-10T06:03:15;20.70;;;18.60;;
11046;SDS011;5576;50.008;10.596;2022-12-10T06:05:40;18.53;;;16.63;;
11046;SDS011;5576;50.008;10.596;2022-12-10T06:08:06;19.15;;;17.15;;
11046;SDS011;5576;50.008;10.596;2022-12-10T06:10:34;20.55;;;18.45;;
11046;SDS011;5576;50.008;10.596;2022-12-10T06:13:00;17.17;;;15.23;;
11046;SDS011;5576;50.008;10.596;2022-12-10T06:15:27;16.25;;;14.55;;
11046;SDS011;5576;50.008;10.596;2022-12-10T06:17:53;17.67;;;14.30;;
11046;SDS011;5576;50.008;10.596;2022-12-10T06:20:21;15.93;;;14.23;;
11046;SDS011;5576;50.008;10.596;2022-12-10T06:22:47;19.00;;;16.60;;
11046;SDS011;5576;50.008;10.596;2022-12-10T06:25:13;18.02;;;16.08;;
11046;SDS011;5576;50.008;10.596;2022-12-10T06:27:39;19.20;;;17.10;;
11046;SDS011;5576;50.008;10.596;2022-12-10T06:30:05;20.58;;;18.38;;
11046;SDS011;5576;50.008;10.596;2022-12-10T06:32:31;20.20;;;17.10;;
11046;SDS011;5576;50.008;10.596;2022-12-10T06:34:57;21.75;;;19.45;;
11046;SDS011;5576;50.008;10.596;2022-12-10T06:37:23;20.40;;;18.30;;
11046;SDS011;5576;50.008;10.596;2022-12-10T06:39:50;20.50;;;18.30;;
11046;SDS011;5576;50.008;10.596;2022-12-10T06:42:17;24.23;;;21.70;;
11046;SDS011;5576;50.008;10.596;2022-12-10T06:44:43;25.88;;;23.25;;
11046;SDS011;5576;50.008;10.596;2022-12-10T06:47:09;23.10;;;20.70;;
11046;SDS011;5576;50.008;10.596;2022-12-10T06:49:35;23.23;;;20.75;;
11046;SDS011;5576;50.008;10.596;2022-12-10T06:52:01;29.60;;;26.55;;
11046;SDS011;5576;50.008;10.596;2022-12-10T06:54:28;27.95;;;25.05;;
11046;SDS011;5576;50.008;10.596;2022-12-10T06:56:54;23.13;;;20.60;;
11046;SDS011;5576;50.008;10.596;2022-12-10T06:59:20;22.98;;;20.60;;
11046;SDS011;5576;50.008;10.596;2022-12-10T07:01:45;21.83;;;19.52;;
11046;SDS011;5576;50.008;10.596;2022-12-10T07:04:11;21.30;;;19.10;;
11046;SDS011;5576;50.008;10.596;2022-12-10T07:06:37;18.92;;;16.92;;
11046;SDS011;5576;50.008;10.596;2022-12-10T07:09:03;18.87;;;16.20;;
11046;SDS011;5576;50.008;10.596;2022-12-10T07:11:28;24.45;;;21.95;;
11046;SDS011;5576;50.008;10.596;2022-12-10T07:13:56;27.17;;;24.48;;
11046;SDS011;5576;50.008;10.596;2022-12-10T07:16:24;31.38;;;28.02;;
11046;SDS011;5576;50.008;10.596;2022-12-10T07:18:52;31.95;;;28.48;;
11046;SDS011;5576;50.008;10.596;2022-12-10T07:21:20;28.93;;;25.80;;
11046;SDS011;5576;50.008;10.596;2022-12-10T07:23:55;27.90;;;22.40;;
11046;SDS011;5576;50.008;10.596;2022-12-10T07:26:23;24.13;;;20.80;;
11046;SDS011;5576;50.008;10.596;2022-12-10T07:28:50;25.77;;;22.98;;
11046;SDS011;5576;50.008;10.596;2022-12-10T07:31:18;23.23;;;20.25;;
11046;SDS011;5576;50.008;10.596;2022-12-10T07:33:44;24.53;;;21.27;;
11046;SDS011;5576;50.008;10.596;2022-12-10T07:36:10;41.03;;;30.75;;
11046;SDS011;5576;50.008;10.596;2022-12-10T07:38:37;33.20;;;25.55;;
11046;SDS011;5576;50.008;10.596;2022-12-10T07:41:04;32.97;;;24.83;;
11046;SDS011;5576;50.008;10.596;2022-12-10T07:43:32;37.70;;;26.38;;
11046;SDS011;5576;50.008;10.596;2022-12-10T07:46:07;34.63;;;25.75;;
11046;SDS011;5576;50.008;10.596;2022-12-10T07:48:35;33.72;;;25.85;;
11046;SDS011;5576;50.008;10.596;2022-12-10T07:51:02;29.45;;;24.40;;
11046;SDS011;5576;50.008;10.596;2022-12-10T07:53:29;26.95;;;22.67;;
11046;SDS011;5576;50.008;10.596;2022-12-10T07:55:55;26.42;;;21.75;;
11046;SDS011;5576;50.008;10.596;2022-12-10T07:58:20;33.20;;;27.37;;
11046;SDS011;5576;50.008;10.596;2022-12-10T08:00:46;28.73;;;25.63;;
11046;SDS011;5576;50.008;10.596;2022-12-10T08:03:12;28.70;;;25.70;;
11046;SDS011;5576;50.008;10.596;2022-12-10T08:05:38;27.37;;;23.97;;
11046;SDS011;5576;50.008;10.596;2022-12-10T08:08:04;24.40;;;21.80;;
11046;SDS011;5576;50.008;10.596;2022-12-10T08:10:30;26.40;;;22.85;;
11046;SDS011;5576;50.008;10.596;2022-12-10T08:12:58;27.00;;;23.52;;
11046;SDS011;5576;50.008;10.596;2022-12-10T08:15:23;25.53;;;22.23;;
11046;SDS011;5576;50.008;10.596;2022-12-10T08:17:49;23.40;;;20.90;;
11046;SDS011;5576;50.008;10.596;2022-12-10T08:20:15;21.92;;;18.83;;
11046;SDS011;5576;50.008;10.596;2022-12-10T08:22:41;23.38;;;20.60;;
11046;SDS011;5576;50.008;10.596;2022-12-10T08:25:07;25.80;;;23.10;;
11046;SDS011;5576;50.008;10.596;2022-12-10T08:27:33;22.90;;;20.50;;
11046;SDS011;5576;50.008;10.596;2022-12-10T08:29:58;24.70;;;22.10;;
11046;SDS011;5576;50.008;10.596;2022-12-10T08:32:24;22.20;;;19.80;;
11046;SDS011;5576;50.008;10.596;2022-12-10T08:34:50;20.57;;;18.47;;
11046;SDS011;5576;50.008;10.596;2022-12-10T08:37:15;23.40;;;20.50;;
11046;SDS011;5576;50.008;10.596;2022-12-10T08:39:42;21.88;;;19.52;;
11046;SDS011;5576;50.008;10.596;2022-12-10T08:42:07;21.33;;;18.92;;
11046;SDS011;5576;50.008;10.596;2022-12-10T08:44:33;24.10;;;20.13;;
11046;SDS011;5576;50.008;10.596;2022-12-10T08:49:24;23.40;;;20.70;;
11046;SDS011;5576;50.008;10.596;2022-12-10T08:51:50;23.10;;;20.60;;
11046;SDS011;5576;50.008;10.596;2022-12-10T08:54:16;25.00;;;21.53;;
11046;SDS011;5576;50.008;10.596;2022-12-10T08:56:42;23.15;;;20.65;;
11046;SDS011;5576;50.008;10.596;2022-12-10T09:01:42;25.00;;;22.35;;
11046;SDS011;5576;50.008;10.596;2022-12-10T09:04:08;24.23;;;21.40;;
11046;SDS011;5576;50.008;10.596;2022-12-10T09:06:34;21.80;;;19.10;;
11046;SDS011;5576;50.008;10.596;2022-12-10T09:09:00;21.00;;;18.52;;
11046;SDS011;5576;50.008;10.596;2022-12-10T09:11:29;23.08;;;20.40;;
11046;SDS011;5576;50.008;10.596;2022-12-10T09:13:57;20.23;;;17.98;;
11046;SDS011;5576;50.008;10.596;2022-12-10T09:16:27;21.60;;;18.40;;
11046;SDS011;5576;50.008;10.596;2022-12-10T09:18:55;21.15;;;18.65;;
11046;SDS011;5576;50.008;10.596;2022-12-10T09:21:21;23.00;;;19.07;;
11046;SDS011;5576;50.008;10.596;2022-12-10T09:23:46;22.73;;;20.20;;
11046;SDS011;5576;50.008;10.596;2022-12-10T09:26:13;24.80;;;20.55;;
11046;SDS011;5576;50.008;10.596;2022-12-10T09:28:40;23.40;;;20.27;;
11046;SDS011;5576;50.008;10.596;2022-12-10T09:31:07;23.33;;;20.10;;
11046;SDS011;5576;50.008;10.596;2022-12-10T09:33:34;22.97;;;20.47;;
11046;SDS011;5576;50.008;10.596;2022-12-10T09:36:02;22.17;;;19.77;;
11046;SDS011;5576;50.008;10.596;2022-12-10T09:38:33;22.53;;;19.77;;
11046;SDS011;5576;50.008;10.596;2022-12-10T09:43:44;24.70;;;21.27;;
11046;SDS011;5576;50.008;10.596;2022-12-10T09:46:40;22.00;;;19.60;;
11046;SDS011;5576;50.008;10.596;2022-12-10T09:51:57;22.15;;;19.58;;
11046;SDS011;5576;50.008;10.596;2022-12-10T09:56:57;22.35;;;18.92;;
11046;SDS011;5576;50.008;10.596;2022-12-10T09:59:27;23.65;;;20.58;;
11046;SDS011;5576;50.008;10.596;2022-12-10T10:04:46;22.50;;;19.90;;
11046;SDS011;5576;50.008;10.596;2022-12-10T10:07:17;23.13;;;19.25;;
11046;SDS011;5576;50.008;10.596;2022-12-10T10:09:47;23.25;;;19.80;;
11046;SDS011;5576;50.008;10.596;2022-12-10T10:12:13;21.67;;;19.08;;
11046;SDS011;5576;50.008;10.596;2022-12-10T10:14:40;25.48;;;22.75;;
11046;SDS011;5576;50.008;10.596;2022-12-10T10:17:09;23.75;;;21.13;;
11046;SDS011;5576;50.008;10.596;2022-12-10T10:19:44;23.58;;;20.95;;
11046;SDS011;5576;50.008;10.596;2022-12-10T10:22:10;25.45;;;22.30;;
11046;SDS011;5576;50.008;10.596;2022-12-10T10:24:38;22.90;;;20.20;;
11046;SDS011;5576;50.008;10.596;2022-12-10T10:27:23;22.65;;;19.75;;
11046;SDS011;5576;50.008;10.596;2022-12-10T10:29:52;21.52;;;18.77;;
11046;SDS011;5576;50.008;10.596;2022-12-10T10:32:22;23.38;;;19.88;;
11046;SDS011;5576;50.008;10.596;2022-12-10T10:34:53;21.13;;;18.02;;
11046;SDS011;5576;50.008;10.596;2022-12-10T10:37:23;21.65;;;18.33;;
11046;SDS011;5576;50.008;10.596;2022-12-10T10:39:55;18.45;;;15.45;;
11046;SDS011;5576;50.008;10.596;2022-12-10T10:42:38;18.55;;;15.10;;
11046;SDS011;5576;50.008;10.596;2022-12-10T10:45:30;17.20;;;13.98;;
11046;SDS011;5576;50.008;10.596;2022-12-10T10:48:08;18.50;;;15.80;;
11046;SDS011;5576;50.008;10.596;2022-12-10T10:50:38;17.13;;;14.50;;
11046;SDS011;5576;50.008;10.596;2022-12-10T10:53:19;14.57;;;12.55;;
11046;SDS011;5576;50.008;10.596;2022-12-10T10:55:49;15.02;;;12.55;;
11046;SDS011;5576;50.008;10.596;2022-12-10T10:58:17;22.48;;;17.05;;
11046;SDS011;5576;50.008;10.596;2022-12-10T11:00:52;14.88;;;12.65;;
11046;SDS011;5576;50.008;10.596;2022-12-10T11:03:19;15.05;;;12.65;;
11046;SDS011;5576;50.008;10.596;2022-12-10T11:05:46;16.23;;;14.27;;
11046;SDS011;5576;50.008;10.596;2022-12-10T11:08:13;17.85;;;14.63;;
11046;SDS011;5576;50.008;10.596;2022-12-10T11:11:02;17.35;;;14.93;;
11046;SDS011;5576;50.008;10.596;2022-12-10T11:13:32;18.13;;;14.98;;
11046;SDS011;5576;50.008;10.596;2022-12-10T11:18:37;15.07;;;13.40;;
11046;SDS011;5576;50.008;10.596;2022-12-10T11:21:06;17.38;;;14.65;;
11046;SDS011;5576;50.008;10.596;2022-12-10T11:23:39;18.95;;;15.65;;
11046;SDS011;5576;50.008;10.596;2022-12-10T11:31:43;16.17;;;13.90;;
11046;SDS011;5576;50.008;10.596;2022-12-10T11:37:21;16.95;;;14.13;;
11046;SDS011;5576;50.008;10.596;2022-12-10T11:43:02;14.27;;;12.45;;
11046;SDS011;5576;50.008;10.596;2022-12-10T11:51:11;14.70;;;12.90;;
11046;SDS011;5576;50.008;10.596;2022-12-10T11:59:34;13.80;;;11.73;;
11046;SDS011;5576;50.008;10.596;2022-12-10T12:02:18;13.38;;;11.30;;
11046;SDS011;5576;50.008;10.596;2022-12-10T12:08:16;11.82;;;10.55;;
11046;SDS011;5576;50.008;10.596;2022-12-10T12:13:56;12.23;;;10.23;;
11046;SDS011;5576;50.008;10.596;2022-12-10T12:16:47;12.47;;;10.93;;
11046;SDS011;5576;50.008;10.596;2022-12-10T12:19:36;11.73;;;9.80;;
11046;SDS011;5576;50.008;10.596;2022-12-10T12:24:54;10.38;;;9.30;;
11046;SDS011;5576;50.008;10.596;2022-12-10T12:32:29;11.23;;;10.05;;
11046;SDS011;5576;50.008;10.596;2022-12-10T12:35:06;12.40;;;11.10;;
11046;SDS011;5576;50.008;10.596;2022-12-10T12:37:40;12.45;;;11.15;;
11046;SDS011;5576;50.008;10.596;2022-12-10T12:40:20;12.87;;;11.47;;
11046;SDS011;5576;50.008;10.596;2022-12-10T12:42:55;11.40;;;10.20;;
11046;SDS011;5576;50.008;10.596;2022-12-10T12:45:41;11.80;;;10.30;;
11046;SDS011;5576;50.008;10.596;2022-12-10T12:53:14;17.77;;;15.15;;
11046;SDS011;5576;50.008;10.596;2022-12-10T13:04:22;12.38;;;11.07;;
11046;SDS011;5576;50.008;10.596;2022-12-10T13:09:38;12.33;;;10.87;;
11046;SDS011;5576;50.008;10.596;2022-12-10T13:19:53;14.95;;;13.32;;
11046;SDS011;5576;50.008;10.596;2022-12-10T13:22:41;12.10;;;10.77;;
11046;SDS011;5576;50.008;10.596;2022-12-10T13:25:10;15.25;;;13.40;;
11046;SDS011;5576;50.008;10.596;2022-12-10T13:27:38;12.70;;;11.40;;
11046;SDS011;5576;50.008;10.596;2022-12-10T13:46:21;11.35;;;10.15;;
11046;SDS011;5576;50.008;10.596;2022-12-10T13:48:52;13.00;;;11.43;;
11046;SDS011;5576;50.008;10.596;2022-12-10T13:51:23;12.45;;;11.15;;
11046;SDS011;5576;50.008;10.596;2022-12-10T13:56:28;14.53;;;12.47;;
11046;SDS011;5576;50.008;10.596;2022-12-10T14:05:23;15.18;;;13.18;;
11046;SDS011;5576;50.008;10.596;2022-12-10T14:08:01;12.00;;;10.48;;
11046;SDS011;5576;50.008;10.596;2022-12-10T14:10:31;11.00;;;9.60;;
11046;SDS011;5576;50.008;10.596;2022-12-10T14:13:00;14.43;;;12.30;;
11046;SDS011;5576;50.008;10.596;2022-12-10T14:15:28;12.20;;;10.90;;
11046;SDS011;5576;50.008;10.596;2022-12-10T14:18:00;13.23;;;11.27;;
11046;SDS011;5576;50.008;10.596;2022-12-10T14:20:32;15.70;;;12.35;;
11046;SDS011;5576;50.008;10.596;2022-12-10T14:23:05;13.00;;;10.48;;
11046;SDS011;5576;50.008;10.596;2022-12-10T14:26:05;10.27;;;9.25;;
11046;SDS011;5576;50.008;10.596;2022-12-10T14:28:38;14.00;;;11.95;;
11046;SDS011;5576;50.008;10.596;2022-12-10T14:31:07;13.95;;;12.13;;
11046;SDS011;5576;50.008;10.596;2022-12-10T14:33:38;12.13;;;10.82;;
11046;SDS011;5576;50.008;10.596;2022-12-10T14:36:05;13.13;;;11.73;;
11046;SDS011;5576;50.008;10.596;2022-12-10T14:38:31;11.95;;;10.70;;
11046;SDS011;5576;50.008;10.596;2022-12-10T14:40:59;12.18;;;10.85;;
11046;SDS011;5576;50.008;10.596;2022-12-10T14:43:31;10.30;;;9.20;;
11046;SDS011;5576;50.008;10.596;2022-12-10T14:46:02;11.60;;;10.40;;
11046;SDS011;5576;50.008;10.596;2022-12-10T14:48:29;11.70;;;10.48;;
11046;SDS011;5576;50.008;10.596;2022-12-10T14:50:56;11.60;;;10.40;;
11046;SDS011;5576;50.008;10.596;2022-12-10T14:53:29;11.53;;;10.30;;
11046;SDS011;5576;50.008;10.596;2022-12-10T14:55:58;12.52;;;11.05;;
11046;SDS011;5576;50.008;10.596;2022-12-10T14:58:29;16.50;;;13.63;;
11046;SDS011;5576;50.008;10.596;2022-12-10T15:01:01;32.65;;;22.67;;
11046;SDS011;5576;50.008;10.596;2022-12-10T15:03:29;19.30;;;16.00;;
11046;SDS011;5576;50.008;10.596;2022-12-10T15:06:00;15.27;;;13.63;;
11046;SDS011;5576;50.008;10.596;2022-12-10T15:08:28;13.27;;;11.88;;
11046;SDS011;5576;50.008;10.596;2022-12-10T15:10:56;12.20;;;10.90;;
11046;SDS011;5576;50.008;10.596;2022-12-10T15:13:32;12.40;;;11.10;;
11046;SDS011;5576;50.008;10.596;2022-12-10T15:16:02;23.00;;;18.57;;
11046;SDS011;5576;50.008;10.596;2022-12-10T15:18:31;18.83;;;14.95;;
11046;SDS011;5576;50.008;10.596;2022-12-10T15:23:48;15.85;;;14.15;;
11046;SDS011;5576;50.008;10.596;2022-12-10T15:26:17;18.25;;;16.00;;
11046;SDS011;5576;50.008;10.596;2022-12-10T15:28:46;15.98;;;13.68;;
11046;SDS011;5576;50.008;10.596;2022-12-10T15:31:16;18.33;;;15.30;;
11046;SDS011;5576;50.008;10.596;2022-12-10T15:34:01;20.33;;;17.30;;
11046;SDS011;5576;50.008;10.596;2022-12-10T15:36:35;19.75;;;17.17;;
11046;SDS011;5576;50.008;10.596;2022-12-10T15:39:03;18.80;;;15.85;;
11046;SDS011;5576;50.008;10.596;2022-12-10T15:41:33;30.00;;;23.23;;
11046;SDS011;5576;50.008;10.596;2022-12-10T15:44:05;50.70;;;32.35;;
11046;SDS011;5576;50.008;10.596;2022-12-10T15:46:49;47.35;;;30.58;;
11046;SDS011;5576;50.008;10.596;2022-12-10T15:49:16;33.67;;;25.77;;
11046;SDS011;5576;50.008;10.596;2022-12-10T15:51:42;19.15;;;16.75;;
11046;SDS011;5576;50.008;10.596;2022-12-10T15:54:17;14.07;;;12.50;;
11046;SDS011;5576;50.008;10.596;2022-12-10T15:56:45;15.38;;;13.50;;
11046;SDS011;5576;50.008;10.596;2022-12-10T15:59:11;20.50;;;17.25;;
11046;SDS011;5576;50.008;10.596;2022-12-10T16:01:37;25.20;;;19.60;;
11046;SDS011;5576;50.008;10.596;2022-12-10T16:04:03;29.60;;;21.30;;
11046;SDS011;5576;50.008;10.596;2022-12-10T16:06:29;28.23;;;21.23;;
11046;SDS011;5576;50.008;10.596;2022-12-10T16:08:55;24.77;;;20.90;;
11046;SDS011;5576;50.008;10.596;2022-12-10T16:11:21;27.52;;;21.42;;
11046;SDS011;5576;50.008;10.596;2022-12-10T16:13:48;22.50;;;18.02;;
11046;SDS011;5576;50.008;10.596;2022-12-10T16:16:17;20.38;;;15.95;;
11046;SDS011;5576;50.008;10.596;2022-12-10T16:18:43;23.70;;;18.83;;
11046;SDS011;5576;50.008;10.596;2022-12-10T16:21:09;28.63;;;21.92;;
11046;SDS011;5576;50.008;10.596;2022-12-10T16:23:35;22.25;;;18.10;;
11046;SDS011;5576;50.008;10.596;2022-12-10T16:26:04;25.67;;;19.85;;
11046;SDS011;5576;50.008;10.596;2022-12-10T16:28:37;23.05;;;18.20;;
11046;SDS011;5576;50.008;10.596;2022-12-10T16:31:03;21.73;;;17.87;;
11046;SDS011;5576;50.008;10.596;2022-12-10T16:33:29;23.73;;;20.13;;
11046;SDS011;5576;50.008;10.596;2022-12-10T16:35:55;18.38;;;16.38;;